createdAt,value
2023-02-17T00:02:00.404Z,4.90
2023-02-17T00:04:47.499Z,4.50
2023-02-17T00:07:37.443Z,5.07
2023-02-17T00:10:24.607Z,4.32
2023-02-17T00:13:12.085Z,3.97
2023-02-17T00:16:12.963Z,4.95
2023-02-17T00:19:01.988Z,4.82
2023-02-17T00:21:50.855Z,4.65
2023-02-17T00:24:41.109Z,4.95
2023-02-17T00:27:28.319Z,4.40
2023-02-17T00:30:16.068Z,4.63
2023-02-17T00:33:03.251Z,3.90
2023-02-17T00:35:52.540Z,4.43
2023-02-17T00:38:42.386Z,4.40
2023-02-17T00:41:31.709Z,4.75
2023-02-17T00:44:26.030Z,4.72
2023-02-17T00:47:15.630Z,4.25
2023-02-17T00:50:02.898Z,4.53
2023-02-17T00:52:53.710Z,4.65
2023-02-17T00:55:41.156Z,4.20
2023-02-17T00:58:28.480Z,4.80
2023-02-17T01:01:17.854Z,4.03
2023-02-17T01:04:05.270Z,4.28
2023-02-17T01:06:54.608Z,4.45
2023-02-17T01:09:41.763Z,4.50
2023-02-17T01:12:29.023Z,4.47
2023-02-17T01:15:21.730Z,4.50
2023-02-17T01:21:00.716Z,4.72
2023-02-17T01:23:52.542Z,4.43
2023-02-17T01:26:40.335Z,4.10
2023-02-17T01:29:27.578Z,4.95
2023-02-17T01:32:14.737Z,4.00
2023-02-17T01:35:02.047Z,5.28
2023-02-17T01:37:51.606Z,5.00
2023-02-17T01:40:46.828Z,4.55
2023-02-17T01:43:34.639Z,4.57
2023-02-17T01:46:21.890Z,3.97
2023-02-17T01:49:33.700Z,3.60
2023-02-17T01:52:25.249Z,4.18
2023-02-17T01:55:19.469Z,4.20
2023-02-17T01:58:09.026Z,4.80
2023-02-17T02:01:02.785Z,4.25
2023-02-17T02:03:52.065Z,3.92
2023-02-17T02:06:45.104Z,5.03
2023-02-17T02:09:47.845Z,4.82
2023-02-17T02:12:40.127Z,4.35
2023-02-17T02:15:52.146Z,4.72
2023-02-17T02:19:15.941Z,4.53
2023-02-17T02:22:30.821Z,4.90
2023-02-17T02:25:29.329Z,4.70
2023-02-17T02:28:22.232Z,4.03
2023-02-17T02:31:23.795Z,4.70
2023-02-17T02:34:24.848Z,4.32
2023-02-17T02:37:25.305Z,3.80
2023-02-17T02:40:20.071Z,4.20
2023-02-17T02:43:07.811Z,4.68
2023-02-17T02:45:54.973Z,4.53
2023-02-17T02:48:43.436Z,4.53
2023-02-17T02:51:54.714Z,4.53
2023-02-17T02:55:03.251Z,3.78
2023-02-17T02:58:12.627Z,4.38
2023-02-17T03:01:07.910Z,4.15
2023-02-17T03:04:07.217Z,3.60
2023-02-17T03:07:02.010Z,4.38
2023-02-17T03:09:57.508Z,4.72
2023-02-17T03:12:44.707Z,4.40
2023-02-17T03:15:34.776Z,4.50
2023-02-17T03:18:21.979Z,4.60
2023-02-17T03:21:19.337Z,4.20
2023-02-17T03:24:06.885Z,4.25
2023-02-17T03:26:56.352Z,3.92
2023-02-17T03:29:43.692Z,4.43
2023-02-17T03:32:33.210Z,4.20
2023-02-17T03:35:23.361Z,4.63
2023-02-17T03:38:10.658Z,4.80
2023-02-17T03:40:57.850Z,4.22
2023-02-17T03:43:45.026Z,4.00
2023-02-17T03:46:32.223Z,4.63
2023-02-17T03:49:19.425Z,4.75
2023-02-17T03:52:06.626Z,4.88
2023-02-17T03:54:54.880Z,4.35
2023-02-17T03:57:44.389Z,5.00
2023-02-17T04:00:31.779Z,4.43
2023-02-17T04:03:32.135Z,4.90
2023-02-17T04:06:19.799Z,4.63
2023-02-17T04:09:06.918Z,4.50
2023-02-17T04:11:56.153Z,4.95
2023-02-17T04:14:44.597Z,4.75
2023-02-17T04:17:32.249Z,4.35
2023-02-17T04:20:19.528Z,4.93
2023-02-17T04:23:08.859Z,4.38
2023-02-17T04:25:56.035Z,4.35
2023-02-17T04:28:43.417Z,4.68
2023-02-17T04:31:30.654Z,4.30
2023-02-17T04:34:17.903Z,4.95
2023-02-17T04:37:05.208Z,4.55
2023-02-17T04:39:52.359Z,4.40
2023-02-17T04:42:44.259Z,5.03
2023-02-17T04:45:31.533Z,4.57
2023-02-17T04:48:19.804Z,4.88
2023-02-17T04:51:07.068Z,5.28
2023-02-17T04:53:56.921Z,4.47
2023-02-17T04:56:49.030Z,5.25
2023-02-17T04:59:36.322Z,4.78
2023-02-17T05:02:39.326Z,5.55
2023-02-17T05:08:13.593Z,4.82
2023-02-17T05:11:05.607Z,4.68
2023-02-17T05:13:55.123Z,5.22
2023-02-17T05:16:45.080Z,5.43
2023-02-17T05:19:32.216Z,5.53
2023-02-17T05:22:19.390Z,5.15
2023-02-17T05:25:07.298Z,5.15
2023-02-17T05:27:54.550Z,4.90
2023-02-17T05:30:44.124Z,4.63
2023-02-17T05:33:31.534Z,5.10
2023-02-17T05:36:21.140Z,4.93
2023-02-17T05:39:10.382Z,4.70
2023-02-17T05:42:00.040Z,5.53
2023-02-17T05:44:49.638Z,4.85
2023-02-17T05:47:37.110Z,4.32
2023-02-17T05:50:24.688Z,4.93
2023-02-17T05:53:11.912Z,5.22
2023-02-17T05:56:01.875Z,4.70
2023-02-17T05:58:51.172Z,5.40
2023-02-17T06:01:38.374Z,3.85
2023-02-17T06:04:25.581Z,4.25
2023-02-17T06:07:15.846Z,4.07
2023-02-17T06:10:05.861Z,4.47
2023-02-17T06:12:53.078Z,4.43
2023-02-17T06:15:41.140Z,4.00
2023-02-17T06:18:31.561Z,4.03
2023-02-17T06:21:20.180Z,3.78
2023-02-17T06:24:07.423Z,4.07
2023-02-17T06:26:55.636Z,4.18
2023-02-17T06:29:43.603Z,4.70
2023-02-17T06:32:33.422Z,4.15
2023-02-17T06:35:21.018Z,4.25
2023-02-17T06:38:10.143Z,4.72
2023-02-17T06:40:57.515Z,4.75
2023-02-17T06:43:51.100Z,3.92
2023-02-17T06:46:46.096Z,4.03
2023-02-17T06:49:33.389Z,4.22
2023-02-17T06:52:25.515Z,3.70
2023-02-17T07:23:31.554Z,3.97
2023-02-17T08:04:27.407Z,4.28
2023-02-17T08:15:13.078Z,4.55
2023-02-17T08:18:30.587Z,5.03
2023-02-17T08:21:34.221Z,4.60
2023-02-17T08:24:53.136Z,4.30
2023-02-17T08:27:54.987Z,4.50
2023-02-17T08:30:46.141Z,4.30
2023-02-17T08:33:48.506Z,4.78
2023-02-17T08:58:25.753Z,3.67
2023-02-17T09:44:52.503Z,3.45
2023-02-17T09:52:23.113Z,3.42
2023-02-17T12:51:39.018Z,2.13
2023-02-17T12:54:29.140Z,2.20
2023-02-17T12:57:41.846Z,2.10
2023-02-17T13:00:43.478Z,1.83
2023-02-17T13:03:33.136Z,1.95
2023-02-17T13:06:36.767Z,2.22
2023-02-17T13:09:40.779Z,1.80
2023-02-17T13:12:30.097Z,1.90
2023-02-17T13:15:31.148Z,1.70
2023-02-17T13:18:24.640Z,1.45
2023-02-17T13:21:22.943Z,1.60
2023-02-17T13:24:14.763Z,1.75
2023-02-17T13:27:31.424Z,1.48
2023-02-17T13:30:21.579Z,1.60
2023-02-17T13:33:21.193Z,1.63
2023-02-17T13:36:22.276Z,1.77
2023-02-17T13:39:28.237Z,1.60
2023-02-17T13:42:48.784Z,1.67
2023-02-17T13:45:43.321Z,1.98
2023-02-17T13:48:36.252Z,2.03
2023-02-17T13:51:29.509Z,1.80
2023-02-17T13:54:23.330Z,1.77
2023-02-17T13:57:26.090Z,2.03
2023-02-17T14:00:19.151Z,1.90
2023-02-17T14:03:20.006Z,1.77
2023-02-17T14:06:13.106Z,2.13
2023-02-17T14:09:00.278Z,2.10
2023-02-17T14:11:47.655Z,2.00
2023-02-17T14:14:40.348Z,1.77
2023-02-17T14:20:37.021Z,2.10
2023-02-17T14:23:24.364Z,1.88
2023-02-17T14:26:24.435Z,2.35
2023-02-17T14:29:20.591Z,2.20
2023-02-17T14:32:26.202Z,2.60
2023-02-17T14:35:15.862Z,2.28
2023-02-17T14:38:21.914Z,2.72
2023-02-17T14:41:14.288Z,2.88
2023-02-17T14:44:01.681Z,2.65
2023-02-17T14:46:48.949Z,2.40
2023-02-17T14:49:36.201Z,2.60
2023-02-17T14:52:25.098Z,2.92
2023-02-17T14:55:28.840Z,2.22
2023-02-17T14:58:22.151Z,2.17
2023-02-17T15:01:14.532Z,2.60
2023-02-17T15:04:02.989Z,2.42
2023-02-17T15:06:54.418Z,2.50
2023-02-17T15:09:43.844Z,2.60
2023-02-17T15:12:31.344Z,2.67
2023-02-17T15:15:18.719Z,3.20
2023-02-17T15:18:05.968Z,2.20
2023-02-17T15:20:59.303Z,2.88
2023-02-17T15:23:49.619Z,2.53
2023-02-17T15:26:39.839Z,2.55
2023-02-17T15:29:29.815Z,2.20
2023-02-17T15:32:21.312Z,2.47
2023-02-17T15:35:18.993Z,2.50
2023-02-17T15:38:06.329Z,2.92
2023-02-17T15:40:56.869Z,2.45
2023-02-17T15:43:46.572Z,2.50
2023-02-17T15:46:35.455Z,2.45
2023-02-17T15:49:23.163Z,2.50
2023-02-17T15:52:14.489Z,2.40
2023-02-17T15:55:04.757Z,2.38
2023-02-17T15:57:57.306Z,2.28
2023-02-17T16:00:55.815Z,2.45
2023-02-17T16:03:43.082Z,2.38
2023-02-17T16:06:30.375Z,2.60
2023-02-17T16:09:20.063Z,3.00
2023-02-17T16:12:18.871Z,2.40
2023-02-17T16:15:14.101Z,2.63
2023-02-17T16:18:01.401Z,2.42
2023-02-17T16:20:49.387Z,2.08
2023-02-17T16:23:36.641Z,2.60
2023-02-17T16:26:34.934Z,2.78
2023-02-17T16:29:22.760Z,2.40
2023-02-17T16:32:13.409Z,2.63
2023-02-17T16:35:01.211Z,2.90
2023-02-17T16:38:03.117Z,2.70
2023-02-17T16:40:52.204Z,2.85
2023-02-17T16:43:39.312Z,2.80
2023-02-17T16:46:31.355Z,2.85
2023-02-17T16:49:31.971Z,2.30
2023-02-17T16:52:28.751Z,2.38
2023-02-17T16:55:22.642Z,2.90
2023-02-17T16:58:23.808Z,2.58
2023-02-17T17:01:15.544Z,2.30
2023-02-17T17:04:07.550Z,3.10
2023-02-17T17:06:54.877Z,3.05
2023-02-17T17:09:45.293Z,2.70
2023-02-17T17:12:36.214Z,2.40
2023-02-17T17:15:24.267Z,3.10
2023-02-17T17:18:24.326Z,2.58
2023-02-17T17:21:13.320Z,3.05
2023-02-17T17:24:00.473Z,2.67
2023-02-17T17:26:51.318Z,2.60
2023-02-17T17:29:38.563Z,2.78
2023-02-17T17:32:26.607Z,2.45
2023-02-17T17:35:16.573Z,2.78
2023-02-17T17:38:04.461Z,2.80
2023-02-17T17:40:53.360Z,2.75
2023-02-17T17:43:42.313Z,2.60
2023-02-17T17:46:34.083Z,2.30
2023-02-17T17:49:21.373Z,2.77
2023-02-17T17:52:08.668Z,2.50
2023-02-17T17:54:55.948Z,2.70
2023-02-17T17:57:43.196Z,2.88
2023-02-17T18:00:30.479Z,3.17
2023-02-17T18:03:20.150Z,2.78
2023-02-17T18:06:10.693Z,3.08
2023-02-17T18:09:02.562Z,2.95
2023-02-17T18:11:51.754Z,3.63
2023-02-17T18:14:41.619Z,3.55
2023-02-17T18:17:34.116Z,3.13
2023-02-17T18:20:23.777Z,3.22
2023-02-17T18:23:13.306Z,2.75
2023-02-17T18:26:00.520Z,2.97
2023-02-17T18:28:48.229Z,3.03
2023-02-17T18:31:35.611Z,2.92
2023-02-17T18:34:22.974Z,3.22
2023-02-17T18:37:12.335Z,2.88
2023-02-17T18:40:04.019Z,2.50
2023-02-17T18:42:53.331Z,2.70
2023-02-17T18:45:40.787Z,2.83
2023-02-17T18:48:32.742Z,3.88
2023-02-17T18:51:23.948Z,2.88
2023-02-17T18:54:13.244Z,3.03
2023-02-17T18:57:01.655Z,3.05
2023-02-17T18:59:50.492Z,3.30
2023-02-17T19:02:39.041Z,3.00
2023-02-17T19:05:29.014Z,3.15
2023-02-17T19:08:16.366Z,3.00
2023-02-17T19:11:04.370Z,3.40
2023-02-17T19:13:52.506Z,2.88
2023-02-17T19:16:44.311Z,2.60
2023-02-17T19:19:31.802Z,3.37
2023-02-17T19:22:19.766Z,3.60
2023-02-17T19:25:09.518Z,3.80
2023-02-17T19:27:59.486Z,3.45
2023-02-17T19:30:46.980Z,3.45
2023-02-17T19:33:40.316Z,3.55
2023-02-17T19:36:27.942Z,3.40
2023-02-17T19:39:15.365Z,3.40
2023-02-17T19:42:03.550Z,3.40
2023-02-17T19:44:50.926Z,2.88
2023-02-17T19:47:38.376Z,3.65
2023-02-17T19:50:25.580Z,3.08
2023-02-17T19:53:12.756Z,4.18
2023-02-17T19:56:30.540Z,3.25
2023-02-17T19:59:17.887Z,4.15
2023-02-17T20:02:05.171Z,3.30
2023-02-17T20:04:53.107Z,4.13
2023-02-17T20:07:40.515Z,4.10
2023-02-17T20:10:27.785Z,3.65
2023-02-17T20:13:14.966Z,3.22
2023-02-17T20:16:07.876Z,2.47
2023-02-17T20:18:55.870Z,2.33
2023-02-17T20:21:46.072Z,2.85
2023-02-17T20:24:44.514Z,3.05
2023-02-17T20:27:31.995Z,2.75
2023-02-17T20:30:19.669Z,2.70
2023-02-17T20:33:11.331Z,3.15
2023-02-17T20:35:58.638Z,2.55
2023-02-17T20:38:45.856Z,2.38
2023-02-17T20:41:38.506Z,2.50
2023-02-17T20:47:17.772Z,2.10
2023-02-17T20:50:09.399Z,2.63
2023-02-17T20:52:56.681Z,1.90
2023-02-17T20:55:43.871Z,2.33
2023-02-17T20:58:31.080Z,2.63
2023-02-17T21:01:19.847Z,2.05
2023-02-17T21:04:08.100Z,2.13
2023-02-17T21:06:55.347Z,1.95
2023-02-17T21:09:42.690Z,2.13
2023-02-17T21:12:29.833Z,1.90
2023-02-17T21:15:19.263Z,2.08
2023-02-17T21:18:06.663Z,2.30
2023-02-17T21:20:54.893Z,1.63
2023-02-17T21:23:45.146Z,1.50
2023-02-17T21:26:33.321Z,1.30
2023-02-17T21:29:20.933Z,1.70
2023-02-17T21:32:08.227Z,1.50
2023-02-17T21:34:55.803Z,1.38
2023-02-17T21:37:43.398Z,1.52
2023-02-17T21:40:30.763Z,2.70
2023-02-17T21:43:42.182Z,1.77
2023-02-17T21:46:32.059Z,1.63
2023-02-17T21:49:19.536Z,1.70
2023-02-17T21:52:07.284Z,1.77
2023-02-17T21:54:58.724Z,1.75
2023-02-17T21:57:45.979Z,1.42
2023-02-17T22:00:33.203Z,1.67
2023-02-17T22:03:26.170Z,1.48
2023-02-17T22:06:15.050Z,1.50
2023-02-17T22:09:04.858Z,1.65
2023-02-17T22:11:52.732Z,1.48
2023-02-17T22:14:40.071Z,1.40
2023-02-17T22:17:29.556Z,1.60
2023-02-17T22:20:17.066Z,1.38
2023-02-17T22:23:10.676Z,1.73
2023-02-17T22:25:57.854Z,1.60
2023-02-17T22:28:45.262Z,1.70
2023-02-17T22:31:32.829Z,1.60
2023-02-17T22:34:20.258Z,1.30
2023-02-17T22:37:07.523Z,1.63
2023-02-17T22:39:56.500Z,1.63
2023-02-17T22:42:43.844Z,1.67
2023-02-17T22:45:31.053Z,1.58
2023-02-17T22:48:18.194Z,1.70
2023-02-17T22:51:10.076Z,1.50
2023-02-17T22:53:58.316Z,1.30
2023-02-17T22:56:45.637Z,1.35
2023-02-17T22:59:35.415Z,1.50
2023-02-17T23:02:22.572Z,1.40
2023-02-17T23:05:14.187Z,1.60
2023-02-17T23:08:01.319Z,1.60
2023-02-17T23:10:48.514Z,1.48
2023-02-17T23:13:37.203Z,1.30
2023-02-17T23:16:24.323Z,1.80
2023-02-17T23:19:15.176Z,1.50
2023-02-17T23:22:05.486Z,1.58
2023-02-17T23:24:52.616Z,1.20
2023-02-17T23:27:39.753Z,1.40
2023-02-17T23:30:28.587Z,1.42
2023-02-17T23:33:18.171Z,1.23
2023-02-17T23:36:06.942Z,1.80
2023-02-17T23:38:58.818Z,1.10
2023-02-17T23:41:46.285Z,1.20
2023-02-17T23:44:33.625Z,1.60
2023-02-17T23:47:21.023Z,1.27
2023-02-17T23:50:08.703Z,1.30
2023-02-17T23:52:56.039Z,1.10
2023-02-17T23:55:43.327Z,1.13
2023-02-17T23:58:31.643Z,1.10
